Time;durP1;ratioP1;P1;durP2;ratioP2;P2;SDS_P1;SDS_P2;PMS_P1;PMS_P2;Temp;Humidity;BMP_temperature;BMP_pressure;BME280_temperature;BME280_humidity;BME280_pressure;Samples;Min_cycle;Max_cycle;Signal;HPM_P1;HPM_P2
2021/12/09 00:01:26;;;;;;;15.35;4.40;;;5.70;96.70;;;3.31;100.00;99195.59;5068887;28;20139;-87
2021/12/09 00:03:57;;;;;;;10.82;4.05;;;5.70;96.70;;;3.31;100.00;99200.97;5068982;28;20048;-87
2021/12/09 00:06:29;;;;;;;9.77;3.60;;;5.70;96.90;;;3.30;100.00;99196.59;5062256;28;20071;-87
2021/12/09 00:09:05;;;;;;;15.75;4.70;;;5.70;96.90;;;3.33;100.00;99205.19;5070185;28;20037;-87
2021/12/09 00:11:41;;;;;;;11.23;3.58;;;5.60;96.80;;;3.29;100.00;99198.47;5040354;28;20767;-87
2021/12/09 00:14:08;;;;;;;10.93;3.67;;;5.60;96.80;;;3.32;100.00;99198.09;5032399;28;20045;-87
2021/12/09 00:16:36;;;;;;;12.68;4.15;;;5.60;97.00;;;3.32;100.00;99208.84;5032077;28;20148;-87
2021/12/09 00:19:03;;;;;;;12.95;4.43;;;5.60;97.10;;;3.31;100.00;99200.97;5050481;28;20056;-87
2021/12/09 00:21:32;;;;;;;10.38;3.97;;;5.50;96.90;;;3.30;100.00;99207.38;5034796;28;20661;-87
2021/12/09 00:23:59;;;;;;;14.35;4.25;;;5.50;97.30;;;3.31;100.00;99200.97;5069527;28;20032;-87
2021/12/09 00:26:26;;;;;;;13.60;4.43;;;5.50;97.30;;;3.32;100.00;99203.47;5068471;28;20094;-87
2021/12/09 00:28:54;;;;;;;14.57;4.40;;;5.50;97.20;;;3.28;100.00;99201.31;5070286;28;20124;-86
2021/12/09 00:31:22;;;;;;;11.60;3.95;;;5.50;97.20;;;3.31;100.00;99200.97;5067220;28;20053;-88
2021/12/09 00:33:50;;;;;;;15.50;4.20;;;5.50;97.40;;;3.32;100.00;99192.72;5068926;28;20516;-87
2021/12/09 00:36:27;;;;;;;14.52;4.38;;;5.50;97.50;;;3.32;100.00;99191.91;5069976;28;20094;-87
2021/12/09 00:38:56;;;;;;;12.82;4.55;;;5.60;97.70;;;3.33;100.00;99193.56;5059044;28;20503;-87
2021/12/09 00:41:24;;;;;;;17.00;4.40;;;5.50;97.70;;;3.35;100.00;99202.31;5062432;28;20162;-87
2021/12/09 00:43:52;;;;;;;14.55;4.45;;;5.50;97.70;;;3.34;100.00;99200.63;5051632;28;20048;-87
2021/12/09 00:46:19;;;;;;;13.18;4.53;;;5.50;97.60;;;3.33;100.00;99196.25;5051961;28;20569;-87
2021/12/09 00:48:47;;;;;;;19.35;4.85;;;5.50;97.80;;;3.32;100.00;99191.91;5051746;28;20139;-87
2021/12/09 00:51:15;;;;;;;11.63;4.10;;;5.50;98.00;;;3.35;100.00;99186.19;5051129;28;20110;-87
2021/12/09 00:53:43;;;;;;;14.52;4.53;;;5.50;98.00;;;3.36;100.00;99198.59;5051102;28;20826;-87
2021/12/09 00:56:13;;;;;;;13.35;4.97;;;5.50;97.80;;;3.34;100.00;99189.88;5048594;28;20045;-87
2021/12/09 00:58:42;;;;;;;13.27;4.50;;;5.50;97.80;;;3.37;100.00;99197.63;5067370;28;20127;-87
2021/12/09 01:01:12;;;;;;;15.65;4.57;;;5.50;97.90;;;3.36;100.00;99206.69;5069038;28;20514;-87
2021/12/09 01:03:41;;;;;;;13.95;4.20;;;5.50;97.90;;;3.32;100.00;99199.97;5069351;28;20208;-86
2021/12/09 01:06:10;;;;;;;14.45;4.53;;;5.40;97.90;;;3.31;100.00;99206.34;5067171;28;20051;-88
2021/12/09 01:08:37;;;;;;;14.02;5.35;;;5.50;98.00;;;3.27;100.00;99211.22;5067394;28;20105;-88
2021/12/09 01:11:06;;;;;;;13.07;3.88;;;5.40;97.80;;;3.24;100.00;99205.38;5068947;28;20044;-86
2021/12/09 01:13:35;;;;;;;12.82;3.80;;;5.40;98.00;;;3.26;100.00;99209.56;5066151;28;20075;-87
2021/12/09 01:16:03;;;;;;;13.30;4.18;;;5.40;98.10;;;3.29;100.00;99208.34;5050911;28;20070;-87
2021/12/09 01:18:31;;;;;;;18.75;5.28;;;5.40;98.10;;;3.23;100.00;99220.63;5050853;28;20045;-87
2021/12/09 01:20:58;;;;;;;12.70;4.00;;;5.40;98.00;;;3.19;100.00;99218.47;5051067;28;20151;-87
2021/12/09 01:23:25;;;;;;;12.10;4.60;;;5.40;97.90;;;3.18;100.00;99212.25;5050443;28;20504;-87
2021/12/09 01:25:58;;;;;;;13.57;4.00;;;5.40;97.70;;;3.20;100.00;99215.59;5050792;28;20150;-87
2021/12/09 01:28:27;;;;;;;14.20;4.15;;;5.40;97.80;;;3.19;100.00;99213.91;5050760;28;20106;-87
2021/12/09 01:31:02;;;;;;;12.38;4.20;;;5.40;97.90;;;3.17;100.00;99217.78;5048375;28;20539;-87
2021/12/09 01:33:30;;;;;;;13.68;4.22;;;5.40;97.80;;;3.17;100.00;99220.47;5067874;28;20130;-88
2021/12/09 01:35:58;;;;;;;10.38;4.10;;;5.40;98.00;;;3.08;100.00;99227.69;5030381;28;20064;-87
2021/12/09 01:38:28;;;;;;;10.15;4.00;;;5.30;97.90;;;3.05;100.00;99222.69;5048423;28;20053;-87
2021/12/09 01:40:56;;;;;;;15.20;4.22;;;5.40;98.00;;;3.04;100.00;99226.34;5040536;28;20047;-88
2021/12/09 01:43:25;;;;;;;16.73;4.97;;;5.30;98.00;;;3.03;100.00;99228.22;5046742;28;20143;-87
2021/12/09 01:48:48;;;;;;;10.88;3.50;;;5.30;98.00;;;2.94;100.00;99239.97;5007081;28;20417;-89
2021/12/09 01:51:17;;;;;;;13.93;3.83;;;5.30;98.00;;;2.95;100.00;99238.94;5018924;28;20373;-88
2021/12/09 01:53:45;;;;;;;14.52;4.32;;;5.20;97.80;;;2.96;100.00;99246.00;5010929;28;20034;-90
2021/12/09 01:56:20;;;;;;;13.88;4.22;;;5.30;98.00;;;2.95;100.00;99249.69;5007232;28;20133;-88
2021/12/09 01:58:48;;;;;;;11.85;4.20;;;5.40;98.20;;;2.94;100.00;99248.84;4990856;28;20045;-89
2021/12/09 02:01:18;;;;;;;10.93;3.65;;;5.20;98.10;;;2.92;100.00;99244.66;4990970;28;20061;-90
2021/12/09 02:03:45;;;;;;;12.10;4.07;;;5.20;98.10;;;2.87;100.00;99252.38;5008846;28;20056;-90
2021/12/09 02:06:13;;;;;;;12.07;3.90;;;5.20;98.20;;;2.86;100.00;99250.72;4990883;28;20065;-90
2021/12/09 02:08:41;;;;;;;13.75;4.38;;;5.20;98.50;;;2.87;100.00;99241.63;5010077;28;20461;-89
2021/12/09 02:11:08;;;;;;;13.95;4.22;;;5.10;99.20;;;2.82;100.00;99243.97;5010072;28;20543;-89
2021/12/09 02:13:36;;;;;;;16.48;4.25;;;5.10;99.20;;;2.82;100.00;99249.34;5028157;28;20041;-89
2021/12/09 02:16:04;;;;;;;11.70;4.20;;;5.10;99.40;;;2.88;100.00;99257.59;5010267;28;20045;-89
2021/12/09 02:18:33;;;;;;;10.90;3.90;;;5.10;99.30;;;2.86;100.00;99248.84;5028415;28;20045;-88
2021/12/09 02:21:14;;;;;;;16.23;4.43;;;5.10;99.20;;;2.90;100.00;99257.44;5010011;28;20053;-87
2021/12/09 02:23:44;;;;;;;13.13;4.75;;;5.10;98.90;;;2.87;100.00;99249.69;5018238;28;20042;-89
2021/12/09 02:26:12;;;;;;;12.27;4.13;;;5.10;99.00;;;2.80;100.00;99245.97;5029015;28;20485;-88
2021/12/09 02:28:40;;;;;;;19.05;5.28;;;5.10;98.90;;;2.73;100.00;99238.59;5010291;28;20049;-88
2021/12/09 02:31:08;;;;;;;16.15;4.28;;;5.00;98.80;;;2.73;100.00;99243.13;5009966;28;20468;-88
2021/12/09 02:33:35;;;;;;;10.48;4.53;;;5.10;99.00;;;2.72;100.00;99239.63;5010026;28;20073;-87
2021/12/09 02:36:04;;;;;;;13.10;4.60;;;5.00;99.10;;;2.76;100.00;99245.50;5010211;28;20045;-88
2021/12/09 02:38:35;;;;;;;13.07;4.50;;;5.00;98.80;;;2.71;100.00;99226.34;5027917;28;20128;-88
2021/12/09 02:41:03;;;;;;;12.95;4.53;;;5.00;98.70;;;2.70;100.00;99236.25;5011095;28;20041;-89
2021/12/09 02:43:31;;;;;;;11.98;4.28;;;5.00;98.80;;;2.73;100.00;99243.97;4997106;28;20049;-88
2021/12/09 02:46:00;;;;;;;13.05;4.63;;;5.00;98.70;;;2.73;100.00;99238.59;5010112;28;20061;-88
2021/12/09 02:48:27;;;;;;;11.20;4.47;;;5.00;98.80;;;2.69;100.00;99229.19;5009884;28;20149;-88
2021/12/09 02:50:56;;;;;;;15.18;5.20;;;5.00;99.00;;;2.68;100.00;99238.25;5009283;28;20491;-88
2021/12/09 02:53:23;;;;;;;15.70;4.60;;;5.00;98.90;;;2.72;100.00;99239.63;5009585;28;20053;-88
2021/12/09 02:55:52;;;;;;;14.85;4.38;;;5.00;98.90;;;2.70;100.00;99241.63;5012505;28;20464;-89
2021/12/09 02:58:19;;;;;;;14.70;4.80;;;5.00;99.00;;;2.66;100.00;99239.41;4989879;28;20490;-89
2021/12/09 03:00:59;;;;;;;12.63;4.75;;;5.00;99.00;;;2.59;100.00;99239.25;5024803;28;20057;-88
2021/12/09 03:03:27;;;;;;;14.80;5.03;;;4.90;99.00;;;2.59;100.00;99239.25;5013655;28;20068;-88
2021/12/09 03:05:57;;;;;;;10.13;4.57;;;4.90;98.70;;;2.60;100.00;99242.78;4994667;28;20046;-88
2021/12/09 03:08:34;;;;;;;10.18;4.68;;;4.90;98.80;;;2.58;100.00;99248.31;4993530;28;20073;-88
2021/12/09 03:11:06;;;;;;;12.93;4.68;;;4.90;98.90;;;2.52;100.00;99240.91;4993855;28;20053;-88
2021/12/09 03:13:33;;;;;;;15.50;5.22;;;4.90;98.90;;;2.53;100.00;99240.75;4987964;28;20491;-89
2021/12/09 03:16:01;;;;;;;12.23;5.07;;;4.90;98.90;;;2.51;100.00;99236.53;4990666;28;20052;-88
2021/12/09 03:18:29;;;;;;;13.48;4.93;;;4.70;99.00;;;2.58;100.00;99245.63;4974368;28;20108;-88
2021/12/09 03:20:56;;;;;;;13.82;5.00;;;4.80;99.20;;;2.54;100.00;99238.91;4990114;28;20042;-89
2021/12/09 03:23:26;;;;;;;11.63;4.97;;;4.80;99.10;;;2.54;100.00;99241.59;5000459;28;20050;-88
2021/12/09 03:25:53;;;;;;;14.95;5.25;;;4.80;99.40;;;2.53;100.00;99240.75;4993465;28;20041;-87
2021/12/09 03:28:22;;;;;;;14.13;4.32;;;4.80;99.40;;;2.52;100.00;99239.06;4993162;28;20096;-88
2021/12/09 03:30:49;;;;;;;15.48;4.72;;;4.70;99.50;;;2.57;100.00;99243.94;4999458;28;20055;-88
2021/12/09 03:33:16;;;;;;;10.32;4.63;;;4.80;99.60;;;2.55;100.00;99243.25;5012911;28;20136;-87
2021/12/09 03:35:44;;;;;;;14.00;4.53;;;4.80;99.60;;;2.53;100.00;99250.63;5031402;28;20567;-88
2021/12/09 03:38:11;;;;;;;15.68;4.63;;;4.70;99.50;;;2.51;100.00;99247.28;5013044;28;20176;-88
2021/12/09 03:40:38;;;;;;;16.77;5.05;;;4.80;99.40;;;2.49;100.00;99249.28;5009802;28;20576;-88
2021/12/09 03:43:06;;;;;;;14.25;4.75;;;4.80;99.50;;;2.46;100.00;99249.63;5009550;28;20046;-88
2021/12/09 03:45:35;;;;;;;13.65;5.45;;;4.80;99.40;;;2.44;100.00;99251.63;5024033;28;20042;-88
2021/12/09 03:48:03;;;;;;;16.15;4.90;;;4.70;99.40;;;2.39;100.00;99248.59;4999645;28;20052;-88
2021/12/09 03:50:30;;;;;;;14.90;5.18;;;4.80;99.30;;;2.30;100.00;99236.97;5012670;28;20080;-88
2021/12/09 03:52:57;;;;;;;15.30;5.15;;;4.70;99.30;;;2.37;100.00;99251.44;5012779;28;20048;-88
2021/12/09 03:55:24;;;;;;;13.07;4.78;;;4.70;99.40;;;2.35;100.00;99254.28;5030434;28;20084;-88
2021/12/09 03:57:52;;;;;;;19.00;5.38;;;4.70;99.20;;;2.34;100.00;99255.31;5030498;28;20125;-88
2021/12/09 04:00:19;;;;;;;14.60;5.40;;;4.90;99.50;;;2.31;100.00;99246.72;5030430;28;20560;-88
2021/12/09 04:02:48;;;;;;;17.50;5.75;;;4.60;99.30;;;2.32;100.00;99237.66;5005232;28;20406;-88
2021/12/09 04:05:15;;;;;;;15.95;4.85;;;4.60;99.40;;;2.31;100.00;99244.03;4999386;28;20116;-88
2021/12/09 04:07:43;;;;;;;10.30;4.82;;;4.60;99.50;;;2.36;100.00;99249.75;4991636;28;20650;-89
2021/12/09 04:10:10;;;;;;;15.10;4.90;;;4.60;99.50;;;2.35;100.00;99248.91;4973323;28;20080;-88
2021/12/09 04:12:38;;;;;;;14.40;4.75;;;4.60;99.70;;;2.37;100.00;99250.59;4973056;28;20620;-89
2021/12/09 04:15:07;;;;;;;18.75;4.85;;;4.60;99.70;;;2.39;100.00;99259.34;4991197;28;20073;-88
2021/12/09 04:17:35;;;;;;;14.50;5.00;;;4.60;99.90;;;2.39;100.00;99259.34;4973388;28;20702;-88
2021/12/09 04:20:06;;;;;;;13.82;5.00;;;4.70;99.90;;;2.28;100.00;99247.88;4982045;28;20042;-88
2021/12/09 04:22:34;;;;;;;16.85;5.03;;;4.60;99.90;;;2.22;100.00;99258.44;5012007;28;20049;-88
2021/12/09 04:25:04;;;;;;;11.38;4.45;;;4.50;99.70;;;2.22;100.00;99261.13;5011793;28;20076;-88
2021/12/09 04:27:31;;;;;;;14.32;5.13;;;4.60;99.80;;;2.19;100.00;99264.97;5012284;28;20045;-88
2021/12/09 04:29:58;;;;;;;11.50;4.53;;;4.50;99.60;;;2.17;100.00;99261.63;5029983;28;20103;-88
2021/12/09 04:32:26;;;;;;;13.05;4.88;;;4.50;99.60;;;2.14;100.00;99257.41;5011776;28;20053;-88
2021/12/09 04:34:56;;;;;;;15.13;4.88;;;4.80;99.70;;;2.08;100.00;99251.84;5013249;28;20115;-88
2021/12/09 04:37:25;;;;;;;15.65;5.20;;;4.50;99.60;;;2.08;100.00;99247.31;5007791;28;20565;-87
2021/12/09 04:39:53;;;;;;;12.63;4.97;;;4.50;99.70;;;2.08;100.00;99249.16;5024528;28;20034;-89
2021/12/09 04:42:20;;;;;;;13.60;4.75;;;4.40;99.70;;;2.02;100.00;99253.31;5029534;28;20116;-87
2021/12/09 04:44:49;;;;;;;10.68;4.30;;;4.40;99.70;;;2.01;100.00;99258.84;5029960;28;20050;-88
2021/12/09 04:47:16;;;;;;;13.52;4.88;;;4.40;99.90;;;2.03;100.00;99260.34;5011743;28;20061;-89
2021/12/09 04:49:43;;;;;;;16.42;5.22;;;4.40;99.70;;;2.04;100.00;99255.84;5011970;28;20053;-87
2021/12/09 04:52:11;;;;;;;12.02;4.63;;;4.40;99.90;;;2.08;100.00;99267.94;5029383;28;20133;-87
2021/12/09 04:54:41;;;;;;;22.33;5.82;;;4.40;99.90;;;2.03;100.00;99264.91;5004804;28;20043;-88
2021/12/09 04:57:09;;;;;;;12.15;5.05;;;4.40;99.90;;;2.12;100.00;99278.19;5017717;28;20498;-89
2021/12/09 04:59:36;;;;;;;9.85;4.30;;;4.40;99.90;;;2.13;100.00;99287.94;4992009;28;20498;-88
2021/12/09 05:02:08;;;;;;;12.93;4.65;;;4.30;99.90;;;2.13;100.00;99287.06;4992036;28;20160;-88
2021/12/09 05:04:35;;;;;;;12.88;5.03;;;4.30;99.90;;;2.13;100.00;99289.75;4992367;28;20140;-88
2021/12/09 05:07:03;;;;;;;14.70;5.85;;;4.30;99.90;;;2.12;100.00;99290.78;5009850;28;20074;-88
2021/12/09 05:09:39;;;;;;;14.23;4.70;;;4.30;99.90;;;2.15;100.00;99285.06;4991911;28;20077;-91
2021/12/09 05:12:12;;;;;;;17.75;4.47;;;4.40;99.90;;;2.12;100.00;99288.09;5013529;28;20080;-88
2021/12/09 05:14:40;;;;;;;11.63;4.72;;;4.40;99.90;;;2.05;100.00;99282.50;5014722;28;20068;-89
2021/12/09 05:17:07;;;;;;;15.65;5.50;;;4.30;99.90;;;2.07;100.00;99287.72;5012783;28;20125;-91
2021/12/09 05:19:34;;;;;;;13.90;5.05;;;4.40;99.90;;;2.03;100.00;99289.88;5012641;28;20041;-89
2021/12/09 05:22:02;;;;;;;13.05;4.97;;;4.30;99.90;;;1.98;100.00;99294.91;5011758;28;20116;-91
2021/12/09 05:24:34;;;;;;;14.48;5.20;;;4.30;99.90;;;1.98;100.00;99297.59;5013035;28;20057;-91
2021/12/09 05:27:02;;;;;;;16.90;5.32;;;4.30;99.90;;;2.02;100.00;99301.63;5012878;28;20215;-92
2021/12/09 05:29:37;;;;;;;13.50;4.55;;;4.30;99.90;;;2.00;100.00;99308.13;5008113;28;20053;-92
2021/12/09 05:32:08;;;;;;;14.95;4.88;;;4.30;99.90;;;2.02;100.00;99327.59;4993290;28;20054;-92
2021/12/09 05:34:38;;;;;;;12.27;4.53;;;4.30;99.90;;;2.05;100.00;99332.66;4992710;28;20046;-90
2021/12/09 05:37:08;;;;;;;18.73;4.88;;;4.30;99.90;;;2.07;100.00;99328.81;4993935;28;20052;-92
2021/12/09 05:39:37;;;;;;;15.45;4.88;;;4.30;99.90;;;2.09;100.00;99320.59;4995862;28;20045;-90
2021/12/09 05:42:06;;;;;;;15.98;4.65;;;4.30;99.90;;;2.13;100.00;99321.97;5009232;28;20085;-91
2021/12/09 05:44:36;;;;;;;15.77;4.82;;;4.30;99.90;;;2.15;100.00;99318.13;4998834;28;20494;-91
2021/12/09 05:47:05;;;;;;;13.82;4.63;;;4.30;99.90;;;2.12;100.00;99310.38;4994004;28;20045;-91
2021/12/09 05:49:34;;;;;;;14.00;4.40;;;4.30;99.90;;;2.18;100.00;99318.81;5010215;28;20096;-91
2021/12/09 05:52:03;;;;;;;20.67;5.53;;;4.30;99.90;;;2.11;100.00;99310.53;5010587;28;20052;-90
2021/12/09 05:54:31;;;;;;;12.02;4.20;;;4.30;99.90;;;2.15;100.00;99322.63;4992896;28;20509;-91
2021/12/09 05:56:59;;;;;;;14.55;4.40;;;4.30;99.90;;;2.12;100.00;99320.28;4993368;28;20045;-90
2021/12/09 05:59:27;;;;;;;14.90;4.65;;;4.30;99.90;;;2.10;100.00;99322.28;5006160;28;20746;-92
2021/12/09 06:01:57;;;;;;;17.17;5.10;;;4.30;99.90;;;2.11;100.00;99326.66;4974975;28;20050;-93
2021/12/09 06:04:25;;;;;;;14.10;4.82;;;4.30;99.90;;;2.09;100.00;99315.22;5031852;28;20121;-90
2021/12/09 06:06:53;;;;;;;15.00;4.97;;;4.40;99.90;;;2.16;100.00;99324.34;5013029;28;20053;-92
2021/12/09 06:09:21;;;;;;;13.15;5.43;;;4.30;99.90;;;2.12;100.00;99320.28;5011449;28;20049;-92
2021/12/09 06:11:50;;;;;;;16.45;5.82;;;4.30;99.90;;;2.13;100.00;99321.97;5011745;28;20060;-91
2021/12/09 06:14:18;;;;;;;16.23;4.97;;;4.30;99.90;;;2.11;100.00;99322.16;5010606;28;20505;-94
2021/12/09 06:21:32;;;;;;;13.65;4.57;;;4.30;99.90;;;2.19;100.00;99345.50;4860475;29;20052;-90
2021/12/09 06:24:01;;;;;;;14.25;4.75;;;4.30;99.90;;;2.15;100.00;99323.50;4892249;29;20056;-88
2021/12/09 06:26:31;;;;;;;12.98;4.00;;;4.30;99.90;;;2.18;100.00;99321.50;4891174;29;20088;-90
2021/12/09 06:28:59;;;;;;;22.08;4.63;;;4.30;99.90;;;2.25;100.00;99339.47;4891244;29;20059;-88
2021/12/09 06:31:30;;;;;;;17.10;4.50;;;4.30;99.90;;;2.27;100.00;99329.44;4887958;29;20052;-89
2021/12/09 06:33:57;;;;;;;12.77;4.95;;;4.30;99.90;;;2.19;100.00;99332.06;4877520;29;20135;-91
2021/12/09 06:36:26;;;;;;;17.67;4.63;;;4.40;99.90;;;2.23;100.00;99329.88;4877670;29;20056;-91
2021/12/09 06:38:54;;;;;;;13.43;5.03;;;4.30;99.90;;;2.25;100.00;99325.22;4868976;29;20057;-91
2021/12/09 06:41:22;;;;;;;13.32;4.70;;;4.30;99.90;;;2.24;100.00;99320.84;4882074;29;20051;-92
2021/12/09 06:43:49;;;;;;;15.10;4.88;;;4.30;99.90;;;2.22;100.00;99323.69;4896009;29;20079;-91
2021/12/09 06:46:16;;;;;;;20.25;5.35;;;4.30;99.90;;;2.26;100.00;99329.56;4896038;29;20159;-91
2021/12/09 06:48:44;;;;;;;14.82;4.80;;;4.30;99.90;;;2.18;100.00;99325.00;4889537;29;20057;-92
2021/12/09 06:51:12;;;;;;;14.65;4.80;;;4.30;99.90;;;2.22;100.00;99323.69;4915065;29;20051;-90
2021/12/09 06:53:41;;;;;;;12.93;4.90;;;4.30;99.90;;;2.24;100.00;99329.72;4954823;28;20043;-92
2021/12/09 06:56:08;;;;;;;14.68;4.30;;;4.40;99.90;;;2.18;100.00;99322.31;4950884;28;20047;-91
2021/12/09 06:58:38;;;;;;;12.38;4.10;;;4.30;99.90;;;2.28;100.00;99331.09;5006901;28;20042;-90
2021/12/09 07:01:07;;;;;;;13.57;4.43;;;4.30;99.90;;;2.32;100.00;99335.16;4995110;28;20050;-91
2021/12/09 07:03:38;;;;;;;16.15;5.07;;;4.30;99.90;;;2.24;100.00;99323.53;4996120;28;20069;-91
2021/12/09 07:06:08;;;;;;;17.92;4.70;;;4.50;99.90;;;2.23;100.00;99324.53;5012627;28;20157;-91
2021/12/09 07:08:42;;;;;;;10.35;4.60;;;4.30;99.90;;;2.26;100.00;99330.41;5012459;28;20042;-89
2021/12/09 07:11:11;;;;;;;12.45;5.00;;;4.30;99.90;;;2.23;100.00;99329.88;4993773;28;20521;-91
2021/12/09 07:13:38;;;;;;;16.55;4.47;;;4.40;99.90;;;2.23;100.00;99336.13;4994097;28;20073;-91
2021/12/09 07:16:06;;;;;;;13.75;4.80;;;4.40;99.90;;;2.21;100.00;99327.38;5006806;28;20680;-91
2021/12/09 07:18:33;;;;;;;13.85;5.22;;;4.40;99.90;;;2.25;100.00;99326.06;5031284;28;20386;-90
2021/12/09 07:21:01;;;;;;;20.88;6.03;;;4.40;99.90;;;2.29;100.00;99335.47;5011078;28;20046;-91
2021/12/09 07:23:28;;;;;;;16.58;4.30;;;4.30;99.90;;;2.24;100.00;99337.78;4995722;28;20046;-91
2021/12/09 07:25:56;;;;;;;10.60;4.40;;;4.50;99.90;;;2.17;100.00;99326.03;4995758;28;20057;-90
2021/12/09 07:28:25;;;;;;;14.20;4.85;;;4.30;99.90;;;2.21;100.00;99327.38;5012381;28;20049;-91
2021/12/09 07:30:53;;;;;;;14.07;4.68;;;4.30;99.90;;;2.19;100.00;99333.91;4991961;28;20870;-90
2021/12/09 07:33:20;;;;;;;12.48;4.75;;;4.30;99.90;;;2.20;100.00;99339.09;5015203;28;20068;-92
2021/12/09 07:35:48;;;;;;;18.48;5.35;;;4.30;99.90;;;2.27;100.00;99348.22;5032002;28;20042;-90
2021/12/09 07:38:16;;;;;;;19.20;5.10;;;4.30;99.90;;;2.25;100.00;99344.03;5014987;28;20826;-91
2021/12/09 07:40:44;;;;;;;15.05;5.07;;;4.30;99.90;;;2.33;100.00;99362.84;5004755;28;20042;-90
2021/12/09 07:43:11;;;;;;;16.98;5.35;;;4.30;99.90;;;2.31;100.00;99360.31;5011742;28;20148;-90
2021/12/09 07:45:40;;;;;;;15.35;5.35;;;4.30;99.90;;;2.26;100.00;99367.16;5007221;28;20088;-92
2021/12/09 07:48:07;;;;;;;13.77;5.32;;;4.30;99.90;;;2.25;100.00;99366.31;4983637;28;20053;-91
2021/12/09 07:50:35;;;;;;;14.70;4.80;;;4.30;99.90;;;2.31;100.00;99373.72;5000103;28;20100;-91
2021/12/09 07:53:03;;;;;;;13.20;4.82;;;4.30;99.90;;;2.29;100.00;99366.84;4998514;28;20041;-90
2021/12/09 07:55:30;;;;;;;12.55;4.50;;;4.30;99.90;;;2.31;100.00;99376.41;5015304;28;20057;-92
2021/12/09 07:57:58;;;;;;;15.13;4.13;;;4.30;99.90;;;2.35;100.00;99367.03;5015275;28;20049;-91
2021/12/09 08:00:30;;;;;;;15.25;4.53;;;4.30;99.90;;;2.39;100.00;99372.94;4999295;28;20053;-89
2021/12/09 08:03:00;;;;;;;15.85;4.90;;;4.30;99.90;;;2.34;100.00;99373.44;5011637;28;20568;-92
2021/12/09 08:05:31;;;;;;;14.53;4.97;;;4.40;99.90;;;2.30;100.00;99364.00;4999528;28;20167;-91
2021/12/09 08:07:58;;;;;;;17.15;4.80;;;4.40;99.90;;;2.34;100.00;99376.09;5012840;28;20077;-90
2021/12/09 08:10:26;;;;;;;13.07;5.00;;;4.40;99.90;;;2.35;100.00;99364.34;4996730;28;20037;-91
2021/12/09 08:12:55;;;;;;;18.08;5.85;;;4.50;99.90;;;2.41;100.00;99376.28;5011496;28;20081;-92
2021/12/09 08:15:22;;;;;;;11.38;4.68;;;4.40;99.90;;;2.33;100.00;99371.72;5011150;28;20053;-91
2021/12/09 08:18:02;;;;;;;12.38;4.47;;;4.40;99.90;;;2.38;100.00;99367.72;4994709;28;20532;-91
2021/12/09 08:20:33;;;;;;;17.10;4.43;;;4.40;99.90;;;2.44;100.00;99380.53;4994771;28;20054;-93
2021/12/09 08:23:01;;;;;;;16.38;4.70;;;4.40;99.90;;;2.43;100.00;99373.47;4995471;28;20050;-94
2021/12/09 08:25:30;;;;;;;15.05;4.88;;;4.70;99.90;;;2.49;100.00;99384.38;5011614;28;20103;-90
2021/12/09 08:27:57;;;;;;;15.77;5.05;;;4.40;99.90;;;2.47;100.00;99369.44;4995318;28;20153;-93
2021/12/09 08:30:26;;;;;;;18.02;5.10;;;4.40;99.90;;;2.45;100.00;99368.75;4995525;28;20149;-92
2021/12/09 08:32:54;;;;;;;15.05;5.00;;;4.50;99.90;;;2.52;100.00;99377.88;4993333;28;20049;-90
2021/12/09 08:35:22;;;;;;;12.73;4.50;;;4.50;99.90;;;2.60;100.00;99388.63;5028151;22;20057;-91
2021/12/09 08:37:54;;;;;;;11.60;4.78;;;4.50;99.90;;;2.66;100.00;99384.47;5028604;28;20075;-90
2021/12/09 08:40:21;;;;;;;13.85;4.75;;;4.50;99.90;;;2.63;100.00;99380.28;5029441;28;20053;-90
2021/12/09 08:42:50;;;;;;;11.07;4.57;;;4.50;99.90;;;2.64;100.00;99381.94;5032444;28;20397;-89
2021/12/09 08:45:19;;;;;;;16.70;4.88;;;4.50;99.90;;;2.68;100.00;99394.03;5055177;28;20044;-90
2021/12/09 08:47:47;;;;;;;15.30;5.53;;;4.60;99.90;;;2.64;100.00;99392.69;5032755;28;20041;-90
2021/12/09 08:50:19;;;;;;;17.75;4.85;;;4.60;99.90;;;2.66;100.00;99396.03;5062793;28;20074;-90
2021/12/09 08:52:47;;;;;;;14.13;5.00;;;4.60;99.90;;;2.72;100.00;99394.56;5069843;28;20465;-90
2021/12/09 08:55:17;;;;;;;13.77;4.72;;;4.60;99.90;;;2.74;100.00;99390.72;5052636;28;20064;-91
2021/12/09 08:57:46;;;;;;;16.55;4.60;;;4.60;99.90;;;2.76;100.00;99392.38;5051533;28;20044;-90
2021/12/09 09:00:17;;;;;;;18.00;4.97;;;4.60;99.90;;;2.79;100.00;99394.75;5048939;28;20041;-90
2021/12/09 09:02:47;;;;;;;17.60;5.00;;;4.60;99.90;;;2.86;100.00;99406.56;5035071;28;20542;-89
2021/12/09 09:05:15;;;;;;;19.35;4.82;;;4.60;99.90;;;2.87;100.00;99402.84;5032740;28;20063;-89
2021/12/09 09:07:43;;;;;;;16.80;5.60;;;4.60;99.90;;;2.87;100.00;99405.53;5032649;28;20126;-89
2021/12/09 09:10:12;;;;;;;14.43;5.22;;;4.70;99.90;;;2.90;100.00;99402.53;5038096;28;20053;-89
2021/12/09 09:12:41;;;;;;;13.07;4.50;;;4.70;99.90;;;2.91;100.00;99405.06;5055209;28;20095;-90
2021/12/09 09:15:12;;;;;;;16.15;5.70;;;4.70;99.90;;;2.96;100.00;99401.88;5049982;28;20052;-90
2021/12/09 09:17:41;;;;;;;16.98;5.47;;;4.70;99.90;;;2.97;100.00;99405.41;5051957;28;20049;-89
2021/12/09 09:20:12;;;;;;;15.05;4.82;;;4.80;99.90;;;2.94;100.00;99407.41;5049001;28;20059;-91
2021/12/09 09:22:41;;;;;;;14.55;5.70;;;4.80;99.90;;;2.97;100.00;99411.63;5042320;28;20394;-91
2021/12/09 09:25:14;;;;;;;20.15;5.22;;;4.80;99.90;;;3.03;100.00;99410.97;5036633;28;20108;-90
2021/12/09 09:27:43;;;;;;;18.45;5.43;;;4.80;99.90;;;3.08;100.00;99416.69;5032223;28;20690;-90
2021/12/09 09:30:14;;;;;;;20.45;5.47;;;4.80;99.90;;;3.04;100.00;99418.03;5060980;28;20121;-88
2021/12/09 09:32:42;;;;;;;14.75;5.30;;;4.80;99.90;;;3.05;100.00;99417.03;5064236;28;20044;-89
2021/12/09 09:35:11;;;;;;;13.65;5.38;;;4.80;99.90;;;3.11;100.00;99432.50;5050307;28;20090;-93
2021/12/09 09:37:39;;;;;;;15.63;5.32;;;4.90;99.90;;;3.15;100.00;99426.81;5050183;28;20075;-91
2021/12/09 09:40:11;;;;;;;15.57;5.85;;;4.90;99.90;;;3.20;100.00;99419.06;5044737;28;20045;-90
2021/12/09 09:42:58;;;;;;;13.43;4.78;;;4.90;99.90;;;3.16;100.00;99423.97;5052514;28;20052;-90
2021/12/09 09:45:27;;;;;;;14.35;5.25;;;4.90;99.90;;;3.20;100.00;99424.44;5044075;28;20136;-91
2021/12/09 09:47:56;;;;;;;15.15;5.05;;;5.00;99.90;;;3.19;100.00;99425.47;5039287;28;20045;-91
2021/12/09 09:50:24;;;;;;;18.80;5.40;;;5.00;99.90;;;3.28;100.00;99416.41;5063343;28;20625;-91
2021/12/09 09:52:51;;;;;;;16.27;5.28;;;5.00;99.90;;;3.31;100.00;99424.13;5051832;28;20079;-91
2021/12/09 09:55:21;;;;;;;16.58;6.30;;;5.00;99.90;;;3.38;100.00;99424.34;5052332;28;20060;-92
2021/12/09 09:57:54;;;;;;;20.33;5.22;;;5.00;99.90;;;3.46;100.00;99425.16;5038198;28;20049;-90
2021/12/09 10:00:23;;;;;;;14.82;5.47;;;5.10;99.90;;;3.54;100.00;99416.28;5038749;28;20041;-89
2021/12/09 10:02:54;;;;;;;15.00;5.55;;;5.10;99.90;;;3.59;100.00;99423.84;5050408;28;20709;-91
2021/12/09 10:05:35;;;;;;;12.93;4.80;;;5.20;99.90;;;3.66;100.00;99430.25;5051825;28;20558;-92
2021/12/09 10:08:05;;;;;;;18.88;5.38;;;5.20;99.90;;;3.77;100.00;99427.25;5052080;28;20456;-90
2021/12/09 10:10:32;;;;;;;17.75;5.13;;;5.20;99.90;;;3.78;100.00;99428.06;5069881;28;20063;-92
2021/12/09 10:13:05;;;;;;;13.05;5.05;;;5.30;99.90;;;3.73;100.00;99436.63;5051776;28;20055;-89
2021/12/09 10:15:46;;;;;;;14.57;5.95;;;5.30;99.90;;;3.81;100.00;99435.78;5052121;28;20044;-90
2021/12/09 10:18:32;;;;;;;20.63;7.22;;;5.40;99.90;;;3.84;100.00;99432.78;5045564;28;20048;-95
2021/12/09 10:21:00;;;;;;;19.63;5.72;;;5.40;99.90;;;3.85;100.00;99427.22;5050019;28;20479;-91
2021/12/09 10:23:36;;;;;;;18.23;6.00;;;5.40;99.90;;;3.83;100.00;99431.13;5039265;28;20265;-90
2021/12/09 10:26:18;;;;;;;12.23;5.53;;;5.40;99.90;;;3.79;100.00;99425.22;5052242;28;20040;-92
2021/12/09 10:28:52;;;;;;;14.93;5.90;;;5.40;99.90;;;3.80;100.00;99429.59;5051525;28;20075;-87
2021/12/09 10:31:25;;;;;;;17.05;5.88;;;5.50;99.90;;;3.81;100.00;99416.97;5033517;28;20465;-89
2021/12/09 10:34:12;;;;;;;13.55;5.22;;;5.50;99.90;;;3.89;100.00;99420.50;5050139;28;20044;-88
2021/12/09 10:36:46;;;;;;;15.45;5.50;;;5.50;99.90;;;3.91;100.00;99413.09;5049915;28;20048;-88